Staunton, Illinois
Current Conditions -  °F | °C
As of 2:15 PM on Wednesday 26 Nov 2014 (Local Time) from K3LF Reporting Station
Light Snow Light Snow  
Wind Chill: 25°   Ceiling: 1000
Heat Index: 33°   Visibility: 1mi
Dew Point: 29°   Wind: 8mph
Humidity: 88%   Direction: 120°ESE
Pressure: 29.99"   Gusts: NA
Location:  39.01°N, 89.79°W
Report Text: K3LF 262015Z AUTO 12007KT 1SM -SN OVC010 00/M01 A2999 RMK AO2 T00031015
Loading
Personal Weather Stations






























Interactive Weather Map New forecast layout! Learn more

10-Day Weather Forecast

Advertisements
Track Severe Weather on mobile